Terminal Aerodrome Forecast
Issued by NWS Dodge City, KS

Home | Current Version | Previous Version | Text Only | Print | Product List | Glossary On
Versions: 1 2 3 4 5 6 7 8 9 10 11 12 13 14 15 16 17 18 19 20 21 22 23 24 25 26 27 28 29 30 31 32 33 34 35 36 37 38 39 40 41
171
FTUS43 KDDC 242320
TAFDDC
TAF
KDDC 242320Z 2500/2524 17010KT P6SM VCTS BKN070CB
     FM250130 12005KT P6SM SCT040
     FM250600 VRB05KT 3SM BR SCT050
     FM250900 35007KT P6SM SCT100
     FM251300 01019G27KT P6SM SCT250=

USA.gov is the U.S. government's official web portal to all federal, state and local government web resources and services.